Time;durP1;ratioP1;P1;durP2;ratioP2;P2;SDS_P1;SDS_P2;PMS_P1;PMS_P2;Temp;Humidity;BMP_temperature;BMP_pressure;BME280_temperature;BME280_humidity;BME280_pressure;Samples;Min_cycle;Max_cycle;Signal;HPM_P1;HPM_P2
2023/05/23 00:04:06;;;;;;;17.58;7.47;;;;;;;;;;10456239;28;20056;-78
2023/05/23 00:09:25;;;;;;;13.73;6.57;;;;;;;;;;10458882;28;20143;-78
2023/05/23 00:14:32;;;;;;;13.48;6.70;;;;;;;;;;10452935;28;20045;-78
2023/05/23 00:19:48;;;;;;;15.27;6.97;;;;;;;;;;10477328;28;20127;-78
2023/05/23 00:25:08;;;;;;;13.85;6.68;;;;;;;;;;10437202;28;20048;-78
2023/05/23 00:30:35;;;;;;;12.32;6.82;;;;;;;;;;10461685;28;20033;-77
2023/05/23 00:35:43;;;;;;;11.82;6.40;;;;;;;;;;10472122;28;20128;-78
2023/05/23 00:40:47;;;;;;;10.10;5.55;;;;;;;;;;10469297;28;20047;-77
2023/05/23 00:45:56;;;;;;;12.68;6.13;;;;;;;;;;10452907;28;20522;-77
2023/05/23 00:51:03;;;;;;;14.20;6.28;;;;;;;;;;10455719;28;20088;-79
2023/05/23 00:56:16;;;;;;;15.80;7.32;;;;;;;;;;10480121;28;20130;-78
2023/05/23 01:01:29;;;;;;;12.30;4.75;;;;;;;;;;10463160;28;20349;-77
2023/05/23 01:12:08;;;;;;;14.82;6.88;;;;;;;;;;10478717;28;20035;-77
2023/05/23 01:17:23;;;;;;;14.32;6.47;;;;;;;;;;10471496;28;20049;-78
2023/05/23 01:22:46;;;;;;;14.23;6.88;;;;;;;;;;10472156;28;20037;-80
2023/05/23 01:27:54;;;;;;;12.90;6.57;;;;;;;;;;10479797;28;20169;-78
2023/05/23 01:33:04;;;;;;;13.30;6.53;;;;;;;;;;10457041;28;20052;-77
2023/05/23 01:38:23;;;;;;;12.02;5.93;;;;;;;;;;10465303;28;20688;-77
2023/05/23 01:43:37;;;;;;;11.20;5.70;;;;;;;;;;10474541;28;20494;-78
2023/05/23 01:48:49;;;;;;;13.00;6.68;;;;;;;;;;10480733;28;20068;-78
2023/05/23 01:53:55;;;;;;;14.95;6.43;;;;;;;;;;10457182;28;20050;-78
2023/05/23 01:59:06;;;;;;;13.50;7.13;;;;;;;;;;10476927;28;20072;-77
2023/05/23 02:04:11;;;;;;;13.90;7.22;;;;;;;;;;10453304;28;20110;-78
2023/05/23 02:09:22;;;;;;;14.75;7.22;;;;;;;;;;10476048;28;20048;-78
2023/05/23 02:14:36;;;;;;;14.27;5.93;;;;;;;;;;10461052;28;20045;-79
2023/05/23 02:19:44;;;;;;;16.15;7.22;;;;;;;;;;10472424;28;20045;-77
2023/05/23 02:24:54;;;;;;;14.55;7.40;;;;;;;;;;10475863;28;20139;-78
2023/05/23 02:30:13;;;;;;;15.20;6.88;;;;;;;;;;10450405;28;20397;-78
2023/05/23 02:35:17;;;;;;;14.73;7.53;;;;;;;;;;10464724;28;20044;-78
2023/05/23 02:40:21;;;;;;;16.45;7.50;;;;;;;;;;10470571;28;20074;-77
2023/05/23 02:45:54;;;;;;;16.10;7.82;;;;;;;;;;10480275;28;20037;-77
2023/05/23 02:50:59;;;;;;;15.55;8.10;;;;;;;;;;10460185;28;20040;-78
2023/05/23 02:56:09;;;;;;;17.13;7.43;;;;;;;;;;10471941;28;20374;-78
2023/05/23 03:01:30;;;;;;;15.23;7.43;;;;;;;;;;10466930;28;20080;-79
2023/05/23 03:06:40;;;;;;;12.90;5.68;;;;;;;;;;10468278;28;20497;-77
2023/05/23 03:11:48;;;;;;;17.27;7.93;;;;;;;;;;10473402;28;20042;-77
2023/05/23 03:17:02;;;;;;;16.48;7.68;;;;;;;;;;10458092;28;20048;-79
2023/05/23 03:22:13;;;;;;;15.55;7.50;;;;;;;;;;10471942;28;20158;-79
2023/05/23 03:27:24;;;;;;;13.88;6.00;;;;;;;;;;10469130;28;20041;-77
2023/05/23 03:32:35;;;;;;;17.45;7.78;;;;;;;;;;10456841;28;20405;-78
2023/05/23 03:37:50;;;;;;;;;;;;;;;;;;10476181;28;20397;-78
2023/05/23 03:43:03;;;;;;;16.27;7.82;;;;;;;;;;10447806;28;19927;-78
2023/05/23 03:48:13;;;;;;;17.83;7.53;;;;;;;;;;10469737;28;20409;-78
2023/05/23 03:53:28;;;;;;;17.65;8.80;;;;;;;;;;10454941;28;20110;-77
2023/05/23 03:58:32;;;;;;;16.75;8.57;;;;;;;;;;10461236;28;20586;-80
2023/05/23 04:03:48;;;;;;;19.23;9.25;;;;;;;;;;10465447;28;20041;-78
2023/05/23 04:08:55;;;;;;;18.75;7.97;;;;;;;;;;10457472;28;20425;-79
2023/05/23 04:14:03;;;;;;;16.05;8.30;;;;;;;;;;10473157;28;20106;-79
2023/05/23 04:19:17;;;;;;;19.75;8.80;;;;;;;;;;10459440;28;20041;-77
2023/05/23 04:24:33;;;;;;;20.98;9.07;;;;;;;;;;10471771;28;20068;-78
2023/05/23 04:29:39;;;;;;;22.25;8.98;;;;;;;;;;10463053;28;20093;-79
2023/05/23 04:34:47;;;;;;;19.80;8.55;;;;;;;;;;10481846;28;20049;-78
2023/05/23 04:39:53;;;;;;;18.77;8.93;;;;;;;;;;10447811;28;20135;-78
2023/05/23 04:44:57;;;;;;;21.08;9.15;;;;;;;;;;10482033;28;20137;-78
2023/05/23 04:50:20;;;;;;;16.52;7.88;;;;;;;;;;10481186;28;20036;-77
2023/05/23 04:55:26;;;;;;;19.13;9.32;;;;;;;;;;10478422;28;20458;-79
2023/05/23 05:00:31;;;;;;;13.63;6.10;;;;;;;;;;10476303;28;20127;-78
2023/05/23 05:05:41;;;;;;;19.42;9.13;;;;;;;;;;10481103;28;20462;-77
2023/05/23 05:10:53;;;;;;;16.83;7.63;;;;;;;;;;10480140;28;20099;-78
2023/05/23 05:16:00;;;;;;;20.52;8.75;;;;;;;;;;10478343;28;20627;-78
2023/05/23 05:21:22;;;;;;;20.42;8.65;;;;;;;;;;10464335;28;20142;-79
2023/05/23 05:26:36;;;;;;;14.77;5.95;;;;;;;;;;10475221;28;20481;-81
2023/05/23 05:31:42;;;;;;;16.45;7.10;;;;;;;;;;10464812;28;20082;-78
2023/05/23 05:36:46;;;;;;;18.88;8.00;;;;;;;;;;10471172;28;20154;-79
2023/05/23 05:41:55;;;;;;;16.83;8.20;;;;;;;;;;10476961;28;20131;-78
2023/05/23 05:46:59;;;;;;;16.38;8.25;;;;;;;;;;10473703;28;20060;-78
2023/05/23 05:52:05;;;;;;;15.50;7.07;;;;;;;;;;10462350;28;20043;-78
2023/05/23 05:57:11;;;;;;;27.23;10.32;;;;;;;;;;10458094;28;20048;-78
2023/05/23 06:02:21;;;;;;;19.48;9.05;;;;;;;;;;10474093;28;20036;-79
2023/05/23 06:07:28;;;;;;;22.70;10.20;;;;;;;;;;10462127;28;20432;-78
2023/05/23 06:12:41;;;;;;;21.98;9.02;;;;;;;;;;10458078;28;20506;-79
2023/05/23 06:23:26;;;;;;;22.67;10.90;;;;;;;;;;10598994;27;20479;-79
2023/05/23 06:28:29;;;;;;;17.92;8.07;;;;;;;;;;10604013;27;20059;-79
2023/05/23 06:33:32;;;;;;;20.40;9.77;;;;;;;;;;10597995;27;20038;-79
2023/05/23 06:38:36;;;;;;;21.98;9.40;;;;;;;;;;10596140;27;20042;-79
2023/05/23 06:43:39;;;;;;;19.63;9.35;;;;;;;;;;10603107;27;20561;-79
2023/05/23 06:48:43;;;;;;;22.00;10.23;;;;;;;;;;10603750;27;20466;-79
2023/05/23 06:53:47;;;;;;;24.75;11.30;;;;;;;;;;10599456;27;20047;-79
2023/05/23 06:58:51;;;;;;;25.23;11.38;;;;;;;;;;10598018;27;20069;-79
2023/05/23 07:03:53;;;;;;;24.65;11.43;;;;;;;;;;10602332;27;20398;-78
2023/05/23 07:08:57;;;;;;;21.73;10.60;;;;;;;;;;10601392;27;20092;-79
2023/05/23 07:14:00;;;;;;;22.85;12.05;;;;;;;;;;10601992;27;20054;-79
2023/05/23 07:19:04;;;;;;;23.92;11.02;;;;;;;;;;10598416;27;20470;-78
2023/05/23 07:24:08;;;;;;;21.92;10.75;;;;;;;;;;10597140;27;20053;-79
2023/05/23 07:29:11;;;;;;;22.25;11.43;;;;;;;;;;10603993;27;20515;-79
2023/05/23 07:34:14;;;;;;;;;;;;;;;;;;10570943;27;20050;-79
2023/05/23 07:39:20;;;;;;;22.70;11.97;;;;;;;;;;10575781;27;19928;-79
2023/05/23 07:44:25;;;;;;;21.25;11.93;;;;;;;;;;10576402;27;20333;-79
2023/05/23 07:49:28;;;;;;;24.92;11.90;;;;;;;;;;10576944;27;20036;-79
2023/05/23 07:54:32;;;;;;;24.08;12.00;;;;;;;;;;10567766;27;20067;-79
2023/05/23 07:59:35;;;;;;;30.23;12.65;;;;;;;;;;10565448;27;20080;-79
2023/05/23 08:04:39;;;;;;;28.13;13.82;;;;;;;;;;10572303;27;20067;-78
2023/05/23 08:09:44;;;;;;;22.55;12.43;;;;;;;;;;10571627;27;20520;-80
2023/05/23 08:14:46;;;;;;;22.45;12.18;;;;;;;;;;10561377;27;20095;-79
2023/05/23 08:19:54;;;;;;;23.58;11.57;;;;;;;;;;10565515;27;20119;-79
2023/05/23 08:24:58;;;;;;;24.70;12.07;;;;;;;;;;10548532;27;20047;-80
2023/05/23 08:30:03;;;;;;;24.15;12.75;;;;;;;;;;10551169;27;20504;-80
2023/05/23 08:35:07;;;;;;;22.42;10.70;;;;;;;;;;10565011;27;20036;-79
2023/05/23 08:40:13;;;;;;;27.83;12.80;;;;;;;;;;10542777;27;20128;-79
2023/05/23 08:45:17;;;;;;;26.17;12.02;;;;;;;;;;10544224;27;20493;-79
2023/05/23 08:50:20;;;;;;;24.85;12.63;;;;;;;;;;10581594;27;20310;-79
2023/05/23 08:55:27;;;;;;;24.08;12.00;;;;;;;;;;10562717;27;20093;-80
2023/05/23 09:00:30;;;;;;;28.60;15.02;;;;;;;;;;10572435;27;20191;-79
2023/05/23 09:05:33;;;;;;;26.27;13.38;;;;;;;;;;10573442;27;20068;-79
2023/05/23 09:10:36;;;;;;;;;;;;;;;;;;10562005;27;20055;-79
2023/05/23 09:15:55;;;;;;;23.90;12.50;;;;;;;;;;10572874;27;19919;-79
2023/05/23 09:20:58;;;;;;;22.08;10.85;;;;;;;;;;10572618;27;20071;-80
2023/05/23 09:26:02;;;;;;;23.77;12.55;;;;;;;;;;10567239;27;20036;-79
2023/05/23 09:31:07;;;;;;;24.15;12.45;;;;;;;;;;10573864;27;20080;-79
2023/05/23 09:36:10;;;;;;;26.98;12.68;;;;;;;;;;10569895;27;20122;-79
2023/05/23 09:41:14;;;;;;;22.10;11.50;;;;;;;;;;10563427;27;20408;-79
2023/05/23 09:46:16;;;;;;;;;;;;;;;;;;10570723;27;20041;-79
2023/05/23 09:51:21;;;;;;;26.10;12.98;;;;;;;;;;10550619;27;19920;-79
2023/05/23 09:56:24;;;;;;;24.70;11.63;;;;;;;;;;10564620;27;20046;-79
2023/05/23 10:01:27;;;;;;;;;;;;;;;;;;10564806;27;20046;-79
2023/05/23 10:06:35;;;;;;;22.43;10.90;;;;;;;;;;10565278;27;19977;-79
2023/05/23 10:12:14;;;;;;;26.80;12.70;;;;;;;;;;10561784;27;20031;-79
2023/05/23 10:17:19;;;;;;;27.83;13.23;;;;;;;;;;10559664;28;20075;-79
2023/05/23 10:22:24;;;;;;;26.00;13.43;;;;;;;;;;10557649;28;20040;-78
2023/05/23 10:27:27;;;;;;;26.10;13.30;;;;;;;;;;10550992;28;20130;-79
2023/05/23 10:32:31;;;;;;;26.67;13.63;;;;;;;;;;10559019;28;20047;-79
2023/05/23 10:37:38;;;;;;;21.73;12.65;;;;;;;;;;10564949;28;20096;-79
2023/05/23 10:42:45;;;;;;;25.23;13.43;;;;;;;;;;10568426;28;20039;-79
2023/05/23 10:47:48;;;;;;;23.63;12.88;;;;;;;;;;10561376;28;20481;-79
2023/05/23 10:52:53;;;;;;;24.52;12.35;;;;;;;;;;10565598;28;20067;-79
2023/05/23 10:58:09;;;;;;;20.25;12.70;;;;;;;;;;10568880;28;20040;-79
2023/05/23 11:03:12;;;;;;;17.20;11.82;;;;;;;;;;10567538;28;20088;-79
2023/05/23 11:08:17;;;;;;;18.05;12.25;;;;;;;;;;10574772;27;20135;-80
2023/05/23 11:13:21;;;;;;;16.50;10.55;;;;;;;;;;10562661;27;20098;-80
2023/05/23 11:18:24;;;;;;;17.58;10.02;;;;;;;;;;10574008;27;20079;-80
2023/05/23 11:23:39;;;;;;;15.85;10.90;;;;;;;;;;10574985;27;20355;-80
2023/05/23 11:28:55;;;;;;;15.68;11.48;;;;;;;;;;10560664;27;20046;-80
2023/05/23 11:33:58;;;;;;;15.70;10.85;;;;;;;;;;10570740;27;20040;-79
2023/05/23 11:39:03;;;;;;;17.02;11.35;;;;;;;;;;10561038;27;20553;-80
2023/05/23 11:44:12;;;;;;;16.40;11.05;;;;;;;;;;10568596;27;20059;-80
2023/05/23 11:49:15;;;;;;;18.60;12.38;;;;;;;;;;10566752;27;20077;-79
2023/05/23 11:54:22;;;;;;;18.35;11.45;;;;;;;;;;10569914;27;20036;-79
2023/05/23 11:59:25;;;;;;;16.35;11.48;;;;;;;;;;10569221;27;20040;-80
2023/05/23 12:04:28;;;;;;;15.18;10.15;;;;;;;;;;10578535;27;20050;-80
2023/05/23 12:09:32;;;;;;;14.10;9.10;;;;;;;;;;10570709;27;20492;-79
2023/05/23 12:14:37;;;;;;;13.13;8.80;;;;;;;;;;10558247;27;20074;-78
2023/05/23 12:19:45;;;;;;;14.63;9.95;;;;;;;;;;10571387;27;20381;-80
2023/05/23 12:24:49;;;;;;;13.98;9.35;;;;;;;;;;10568073;27;20046;-79
2023/05/23 12:29:52;;;;;;;14.43;8.57;;;;;;;;;;10573047;27;20038;-80
2023/05/23 12:34:54;;;;;;;16.23;10.25;;;;;;;;;;10577080;27;20065;-79
2023/05/23 12:40:09;;;;;;;15.73;9.85;;;;;;;;;;10571441;27;20048;-80
2023/05/23 12:45:13;;;;;;;12.65;9.05;;;;;;;;;;10566460;27;20027;-80
2023/05/23 12:50:16;;;;;;;15.70;9.65;;;;;;;;;;10562137;27;20581;-80
2023/05/23 12:55:21;;;;;;;12.23;8.88;;;;;;;;;;10565365;27;21104;-80
2023/05/23 13:00:24;;;;;;;15.40;9.90;;;;;;;;;;10556248;27;20050;-80
2023/05/23 13:05:27;;;;;;;16.30;9.82;;;;;;;;;;10543759;27;20147;-80
2023/05/23 13:10:31;;;;;;;13.98;9.25;;;;;;;;;;10544040;27;20134;-80
2023/05/23 13:15:34;;;;;;;18.25;9.15;;;;;;;;;;10565023;27;20474;-79
2023/05/23 13:20:38;;;;;;;12.75;8.70;;;;;;;;;;10547300;27;20035;-80
2023/05/23 13:25:42;;;;;;;13.68;9.25;;;;;;;;;;10562457;27;20085;-80
2023/05/23 13:30:45;;;;;;;15.70;9.40;;;;;;;;;;10569695;27;20052;-79
2023/05/23 13:35:49;;;;;;;16.48;9.20;;;;;;;;;;10570184;27;20051;-79
2023/05/23 13:40:53;;;;;;;15.73;8.32;;;;;;;;;;10574165;27;20147;-79
2023/05/23 13:45:56;;;;;;;14.18;8.90;;;;;;;;;;10579127;27;20096;-80
2023/05/23 13:50:59;;;;;;;14.73;8.60;;;;;;;;;;10574646;27;20450;-79
2023/05/23 13:56:04;;;;;;;16.08;9.07;;;;;;;;;;10568216;27;20051;-80
2023/05/23 14:01:07;;;;;;;14.98;8.43;;;;;;;;;;10567775;27;20036;-80
2023/05/23 14:06:10;;;;;;;14.13;8.68;;;;;;;;;;10577436;27;20043;-78
2023/05/23 14:11:15;;;;;;;15.15;8.98;;;;;;;;;;10568203;27;20444;-79
2023/05/23 14:16:18;;;;;;;14.02;7.97;;;;;;;;;;10561973;27;20057;-79
2023/05/23 14:21:20;;;;;;;16.00;9.00;;;;;;;;;;10561910;27;20113;-78
2023/05/23 14:26:25;;;;;;;15.07;8.13;;;;;;;;;;10560244;28;20062;-80
2023/05/23 14:31:27;;;;;;;12.88;7.68;;;;;;;;;;10561510;28;20067;-80
2023/05/23 14:36:31;;;;;;;11.98;7.93;;;;;;;;;;10563138;28;20068;-79
2023/05/23 14:41:36;;;;;;;11.55;7.53;;;;;;;;;;10559685;27;20036;-79
2023/05/23 14:46:40;;;;;;;14.15;8.32;;;;;;;;;;10584676;27;20059;-78
2023/05/23 14:51:43;;;;;;;12.20;7.63;;;;;;;;;;10566556;27;20039;-79
2023/05/23 14:56:55;;;;;;;14.75;7.22;;;;;;;;;;10573315;27;20052;-79
2023/05/23 15:01:58;;;;;;;14.75;8.02;;;;;;;;;;10576218;27;20046;-80
2023/05/23 15:07:00;;;;;;;12.55;7.68;;;;;;;;;;10573837;27;20047;-79
2023/05/23 15:12:08;;;;;;;13.30;7.47;;;;;;;;;;10572511;27;20360;-78
2023/05/23 15:17:12;;;;;;;15.07;7.28;;;;;;;;;;10569220;27;20104;-79
2023/05/23 15:22:15;;;;;;;13.82;7.88;;;;;;;;;;10569547;27;20048;-79
2023/05/23 15:27:37;;;;;;;;;;;;;;;;;;10571600;27;20424;-78
2023/05/23 15:32:42;;;;;;;12.73;7.32;;;;;;;;;;10564597;27;20588;-78
2023/05/23 15:37:45;;;;;;;13.43;7.50;;;;;;;;;;10551653;27;20043;-80
2023/05/23 15:42:48;;;;;;;18.17;7.75;;;;;;;;;;10578625;27;20106;-78
2023/05/23 15:47:52;;;;;;;14.63;7.05;;;;;;;;;;10578002;27;20041;-79
2023/05/23 15:52:55;;;;;;;13.75;6.88;;;;;;;;;;10580215;27;20078;-78
2023/05/23 15:57:58;;;;;;;10.02;5.43;;;;;;;;;;10575260;27;20130;-78
2023/05/23 16:03:00;;;;;;;;;;;;;;;;;;10573229;27;20115;-79
2023/05/23 16:08:05;;;;;;;11.73;6.30;;;;;;;;;;10578012;27;20356;-79
2023/05/23 16:13:08;;;;;;;11.65;6.00;;;;;;;;;;10563868;27;20043;-79
2023/05/23 16:18:11;;;;;;;11.43;6.20;;;;;;;;;;10575746;27;20044;-80
2023/05/23 16:23:15;;;;;;;10.95;5.78;;;;;;;;;;10547849;27;20027;-79
2023/05/23 16:28:20;;;;;;;13.85;6.00;;;;;;;;;;10573947;27;20095;-78
2023/05/23 16:33:22;;;;;;;10.98;5.50;;;;;;;;;;10565271;27;20045;-79
2023/05/23 16:38:27;;;;;;;9.48;5.85;;;;;;;;;;10561165;27;20066;-79
2023/05/23 16:43:30;;;;;;;8.82;4.70;;;;;;;;;;10564364;27;20032;-79
2023/05/23 16:48:33;;;;;;;9.60;4.20;;;;;;;;;;10563559;27;20042;-79
2023/05/23 16:53:38;;;;;;;9.77;4.13;;;;;;;;;;10559393;27;20544;-79
2023/05/23 16:58:40;;;;;;;8.77;4.05;;;;;;;;;;10565415;27;20044;-79
2023/05/23 17:03:43;;;;;;;6.70;3.63;;;;;;;;;;10561093;27;20123;-78
2023/05/23 17:08:48;;;;;;;11.15;3.90;;;;;;;;;;10562130;27;20404;-79
2023/05/23 17:13:51;;;;;;;7.80;3.40;;;;;;;;;;10552684;27;20039;-78
2023/05/23 17:18:54;;;;;;;;;;;;;;;;;;10567774;27;20810;-78
2023/05/23 17:23:58;;;;;;;7.13;3.17;;;;;;;;;;10574207;27;19936;-79
2023/05/23 17:29:01;;;;;;;6.30;3.40;;;;;;;;;;10567355;27;20039;-80
2023/05/23 17:34:04;;;;;;;5.18;3.20;;;;;;;;;;10562084;27;20036;-79
2023/05/23 17:39:07;;;;;;;;;;;;;;;;;;10558499;27;20510;-79
2023/05/23 17:44:11;;;;;;;4.93;2.87;;;;;;;;;;10559650;27;19919;-79
2023/05/23 17:49:14;;;;;;;5.78;3.45;;;;;;;;;;10559739;27;20067;-79
2023/05/23 17:54:18;;;;;;;5.55;3.13;;;;;;;;;;10556449;27;20042;-78
2023/05/23 17:59:22;;;;;;;6.72;3.28;;;;;;;;;;10561052;27;20039;-80
2023/05/23 18:04:25;;;;;;;7.03;2.80;;;;;;;;;;10553185;27;20044;-80
2023/05/23 18:09:28;;;;;;;;;;;;;;;;;;10574702;27;20035;-78
2023/05/23 18:14:32;;;;;;;5.18;2.80;;;;;;;;;;10560891;27;19929;-78
2023/05/23 18:19:35;;;;;;;6.03;2.67;;;;;;;;;;10563663;27;20572;-79
2023/05/23 18:24:39;;;;;;;6.97;3.03;;;;;;;;;;10561995;28;20036;-79
2023/05/23 18:29:43;;;;;;;7.50;3.42;;;;;;;;;;10577090;28;20126;-79
2023/05/23 18:34:46;;;;;;;8.48;2.90;;;;;;;;;;10574383;28;20100;-80
2023/05/23 18:39:49;;;;;;;;;;;;;;;;;;10563579;28;20453;-79
2023/05/23 18:44:54;;;;;;;3.90;2.28;;;;;;;;;;10569466;28;19938;-79
2023/05/23 18:49:57;;;;;;;4.38;2.25;;;;;;;;;;10572794;28;20126;-78
2023/05/23 18:55:00;;;;;;;3.97;2.40;;;;;;;;;;10569618;28;20031;-79
2023/05/23 19:00:05;;;;;;;5.68;2.80;;;;;;;;;;10568978;28;20046;-78
2023/05/23 19:05:08;;;;;;;5.85;2.58;;;;;;;;;;10562331;28;20134;-80
2023/05/23 19:10:11;;;;;;;3.47;2.08;;;;;;;;;;10558013;28;20125;-79
2023/05/23 19:15:15;;;;;;;4.00;2.40;;;;;;;;;;10563469;28;20048;-79
2023/05/23 19:20:19;;;;;;;5.00;2.42;;;;;;;;;;10566031;28;20715;-80
2023/05/23 19:25:21;;;;;;;5.07;2.47;;;;;;;;;;10557561;28;20119;-78
2023/05/23 19:30:26;;;;;;;5.47;2.60;;;;;;;;;;10563117;27;20127;-78
2023/05/23 19:35:28;;;;;;;5.68;2.30;;;;;;;;;;10568028;27;20043;-77
2023/05/23 19:40:32;;;;;;;4.63;2.38;;;;;;;;;;10564974;27;20477;-78
2023/05/23 19:45:36;;;;;;;7.30;2.85;;;;;;;;;;10564358;27;20040;-76
2023/05/23 19:50:41;;;;;;;4.22;2.33;;;;;;;;;;10567359;27;20044;-77
2023/05/23 19:55:44;;;;;;;5.47;2.65;;;;;;;;;;10565688;27;20036;-77
2023/05/23 20:00:49;;;;;;;6.05;2.78;;;;;;;;;;10564955;27;20188;-80
2023/05/23 20:05:52;;;;;;;4.70;2.90;;;;;;;;;;10565695;27;20050;-77
2023/05/23 20:10:55;;;;;;;6.40;2.93;;;;;;;;;;10571685;27;20039;-79
2023/05/23 20:15:59;;;;;;;6.73;3.17;;;;;;;;;;10564860;27;20106;-78
2023/05/23 20:21:02;;;;;;;6.28;3.08;;;;;;;;;;10559114;27;20035;-78
2023/05/23 20:26:07;;;;;;;7.72;3.17;;;;;;;;;;10564564;27;20035;-79
2023/05/23 20:31:12;;;;;;;4.05;2.67;;;;;;;;;;10565054;27;20044;-79
2023/05/23 20:36:18;;;;;;;4.15;2.67;;;;;;;;;;10560094;27;20132;-79
2023/05/23 20:41:22;;;;;;;4.22;2.92;;;;;;;;;;10555626;27;21905;-79
2023/05/23 20:46:26;;;;;;;7.55;3.35;;;;;;;;;;10554926;27;20457;-77
2023/05/23 20:51:29;;;;;;;6.20;3.00;;;;;;;;;;10560108;27;20051;-80
2023/05/23 20:56:31;;;;;;;4.97;2.78;;;;;;;;;;10557789;27;20043;-79
2023/05/23 21:01:35;;;;;;;6.47;2.92;;;;;;;;;;10543832;27;20563;-79
2023/05/23 21:06:38;;;;;;;5.65;3.08;;;;;;;;;;10559784;27;20046;-81
2023/05/23 21:11:41;;;;;;;7.13;3.63;;;;;;;;;;10567054;27;20040;-79
2023/05/23 21:16:45;;;;;;;6.97;3.23;;;;;;;;;;10561157;27;20050;-79
2023/05/23 21:21:49;;;;;;;6.47;2.97;;;;;;;;;;10563439;27;20170;-78
2023/05/23 21:26:52;;;;;;;5.88;3.10;;;;;;;;;;10567382;27;20468;-79
2023/05/23 21:31:56;;;;;;;7.07;3.28;;;;;;;;;;10558625;27;20646;-79
2023/05/23 21:36:58;;;;;;;6.18;3.20;;;;;;;;;;10573286;27;20223;-79
2023/05/23 21:42:01;;;;;;;5.30;3.27;;;;;;;;;;10571378;27;20175;-78
2023/05/23 21:47:06;;;;;;;6.53;3.40;;;;;;;;;;10573504;27;20077;-79
2023/05/23 21:52:09;;;;;;;8.20;4.05;;;;;;;;;;10568450;27;20045;-78
2023/05/23 21:57:12;;;;;;;6.97;3.60;;;;;;;;;;10574072;27;20108;-79
2023/05/23 22:02:16;;;;;;;7.53;3.90;;;;;;;;;;10567428;27;20039;-79
2023/05/23 22:07:23;;;;;;;9.75;4.10;;;;;;;;;;10577464;27;20039;-78
2023/05/23 22:12:27;;;;;;;6.90;3.50;;;;;;;;;;10565086;27;20036;-78
2023/05/23 22:17:33;;;;;;;6.05;3.33;;;;;;;;;;10567631;27;20039;-78
2023/05/23 22:22:36;;;;;;;6.60;3.47;;;;;;;;;;10571737;27;20557;-78
2023/05/23 22:27:41;;;;;;;7.90;3.60;;;;;;;;;;10563869;28;20356;-79
2023/05/23 22:32:46;;;;;;;6.55;3.75;;;;;;;;;;10563462;28;20046;-79
2023/05/23 22:37:49;;;;;;;5.35;3.20;;;;;;;;;;10563609;28;20039;-79
2023/05/23 22:42:51;;;;;;;6.00;3.45;;;;;;;;;;10563945;28;20134;-79
2023/05/23 22:47:59;;;;;;;6.72;3.70;;;;;;;;;;10559788;28;20032;-79
2023/05/23 22:53:03;;;;;;;6.65;3.75;;;;;;;;;;10560967;28;20443;-78
2023/05/23 22:58:07;;;;;;;6.80;4.03;;;;;;;;;;10568304;28;20043;-78
2023/05/23 23:03:13;;;;;;;9.23;3.10;;;;;;;;;;10564056;27;20123;-79
2023/05/23 23:08:18;;;;;;;7.47;3.65;;;;;;;;;;10571052;27;20044;-80
2023/05/23 23:13:21;;;;;;;7.60;3.60;;;;;;;;;;10544750;27;20599;-78
2023/05/23 23:18:25;;;;;;;6.28;3.38;;;;;;;;;;10570079;27;20130;-81
2023/05/23 23:23:29;;;;;;;6.07;3.60;;;;;;;;;;10568922;27;20119;-79
2023/05/23 23:28:32;;;;;;;5.60;3.17;;;;;;;;;;10573264;27;20042;-77
2023/05/23 23:33:37;;;;;;;6.27;3.30;;;;;;;;;;10572788;27;20054;-78
2023/05/23 23:38:40;;;;;;;7.28;3.95;;;;;;;;;;10562917;27;20039;-78
2023/05/23 23:43:43;;;;;;;6.57;3.40;;;;;;;;;;10569422;27;20460;-77
2023/05/23 23:48:47;;;;;;;5.13;3.00;;;;;;;;;;10576639;27;20051;-77
2023/05/23 23:53:50;;;;;;;5.05;3.30;;;;;;;;;;10553835;27;20525;-77
2023/05/23 23:58:55;;;;;;;7.53;3.42;;;;;;;;;;10572851;27;20483;-77
